createdAt,value
2019-03-24T00:02:01.234Z,100751.87
2019-03-24T00:04:33.974Z,100750.39
2019-03-24T00:07:06.854Z,100753.67
2019-03-24T00:09:39.685Z,100752.58
2019-03-24T00:12:12.653Z,100742.91
2019-03-24T00:14:45.383Z,100751.42
2019-03-24T00:17:17.854Z,100757.23
2019-03-24T00:19:50.584Z,100752.31
2019-03-24T00:22:23.157Z,100752.20
2019-03-24T00:24:56.334Z,100759.22
2019-03-24T00:27:29.805Z,100758.42
2019-03-24T00:30:02.364Z,100764.09
2019-03-24T00:32:35.154Z,100761.44
2019-03-24T00:35:07.955Z,100768.34
2019-03-24T00:37:40.674Z,100773.94
2019-03-24T00:40:13.804Z,100780.02
2019-03-24T00:42:46.494Z,100783.11
2019-03-24T00:45:19.268Z,100790.02
2019-03-24T00:47:52.141Z,100783.79
2019-03-24T00:50:24.925Z,100781.93
2019-03-24T00:52:57.534Z,100787.53
2019-03-24T00:55:30.354Z,100787.93
2019-03-24T00:58:02.854Z,100769.79
2019-03-24T01:00:46.976Z,100795.38
2019-03-24T01:03:19.943Z,100795.38
2019-03-24T01:05:53.147Z,100802.05
2019-03-24T01:08:25.804Z,100804.62
2019-03-24T01:10:58.483Z,100811.58
2019-03-24T01:13:31.084Z,100806.41
2019-03-24T01:16:03.736Z,100806.41
2019-03-24T01:18:36.297Z,100813.39
2019-03-24T01:21:09.338Z,100812.98
2019-03-24T01:23:42.034Z,100814.77
2019-03-24T01:26:14.667Z,100810.41
2019-03-24T01:28:47.227Z,100810.48
2019-03-24T01:31:19.805Z,100814.02
2019-03-24T01:33:52.574Z,100818.45
2019-03-24T01:36:25.309Z,100825.03
2019-03-24T01:38:58.406Z,100836.34
2019-03-24T01:41:31.894Z,100837.79
2019-03-24T01:44:05.180Z,100845.31
2019-03-24T01:46:37.983Z,100840.22
2019-03-24T01:49:10.884Z,100844.83
2019-03-24T01:51:45.785Z,100851.68
2019-03-24T01:54:18.505Z,100852.38
2019-03-24T01:56:51.243Z,100849.06
2019-03-24T01:59:24.016Z,100845.44
2019-03-24T02:01:56.864Z,100857.37
2019-03-24T02:04:30.496Z,100855.00
2019-03-24T02:07:03.728Z,100850.84
2019-03-24T02:09:36.401Z,100849.25
2019-03-24T02:12:09.426Z,100851.14
2019-03-24T02:14:42.383Z,100858.27
2019-03-24T02:17:15.435Z,100861.52
2019-03-24T02:19:48.384Z,100862.19
2019-03-24T02:22:20.947Z,100863.67
2019-03-24T02:24:54.015Z,100872.98
2019-03-24T02:27:26.783Z,100869.20
2019-03-24T02:29:59.805Z,100874.97
2019-03-24T02:32:32.638Z,100873.36
2019-03-24T02:35:05.765Z,100882.14
2019-03-24T02:37:38.486Z,100883.99
2019-03-24T02:40:12.296Z,100887.55
2019-03-24T02:42:45.026Z,100886.33
2019-03-24T02:45:17.867Z,100889.01
2019-03-24T02:47:50.750Z,100886.02
2019-03-24T02:50:23.488Z,100879.18
2019-03-24T02:52:56.193Z,100892.72
2019-03-24T02:55:29.198Z,100882.94
2019-03-24T02:58:01.935Z,100895.26
2019-03-24T03:00:34.817Z,100892.27
2019-03-24T03:03:07.912Z,100889.27
2019-03-24T03:05:40.565Z,100892.86
2019-03-24T03:08:13.373Z,100890.39
2019-03-24T03:10:46.216Z,100894.05
2019-03-24T03:13:18.800Z,100890.25
2019-03-24T03:15:51.587Z,100883.81
2019-03-24T03:18:24.514Z,100890.02
2019-03-24T03:20:58.364Z,100890.09
2019-03-24T03:23:31.246Z,100885.47
2019-03-24T03:26:05.102Z,100882.00
2019-03-24T03:28:37.875Z,100888.13
2019-03-24T03:31:10.818Z,100884.23
2019-03-24T03:33:43.810Z,100883.91
2019-03-24T03:36:16.565Z,100893.05
2019-03-24T03:38:50.515Z,100894.89
2019-03-24T03:41:23.207Z,100903.15
2019-03-24T03:43:55.934Z,100900.55
2019-03-24T03:46:28.594Z,100901.45
2019-03-24T03:49:01.511Z,100904.08
2019-03-24T03:51:34.330Z,100907.17
2019-03-24T03:54:07.475Z,100911.56
2019-03-24T03:56:40.300Z,100918.59
2019-03-24T03:59:13.225Z,100911.30
2019-03-24T04:01:46.210Z,100921.31
2019-03-24T04:04:19.156Z,100922.23
2019-03-24T04:06:51.997Z,100926.20
2019-03-24T04:09:24.826Z,100928.46
2019-03-24T04:11:57.637Z,100930.69
2019-03-24T04:14:30.325Z,100932.96
2019-03-24T04:17:07.445Z,100931.30
2019-03-24T04:19:37.806Z,100933.98
2019-03-24T04:22:10.504Z,100940.55
2019-03-24T04:24:43.125Z,100938.45
2019-03-24T04:27:15.867Z,100945.91
2019-03-24T04:29:48.474Z,100941.34
2019-03-24T04:32:21.207Z,100937.56
2019-03-24T04:34:53.915Z,100935.94
2019-03-24T04:37:27.054Z,100940.39
2019-03-24T04:39:59.816Z,100930.95
2019-03-24T04:42:32.654Z,100945.73
2019-03-24T04:45:05.518Z,100947.93
2019-03-24T04:47:38.164Z,100943.61
2019-03-24T04:50:11.546Z,100943.61
2019-03-24T04:52:44.284Z,100944.86
2019-03-24T04:55:17.327Z,100944.84
2019-03-24T04:57:50.162Z,100948.67
2019-03-24T05:00:43.754Z,100951.19
2019-03-24T05:03:17.064Z,100951.95
2019-03-24T05:05:49.996Z,100952.33
2019-03-24T05:08:24.515Z,100948.34
2019-03-24T05:10:57.207Z,100951.74
2019-03-24T05:13:29.794Z,100952.98
2019-03-24T05:16:02.664Z,100948.17
2019-03-24T05:18:35.294Z,100957.20
2019-03-24T05:21:08.375Z,100958.06
2019-03-24T05:23:41.004Z,100966.68
2019-03-24T05:26:13.958Z,100967.08
2019-03-24T05:28:46.774Z,100967.89
2019-03-24T05:31:19.786Z,100971.38
2019-03-24T05:33:52.454Z,100967.41
2019-03-24T05:36:25.352Z,100970.72
2019-03-24T05:38:57.994Z,100973.72
2019-03-24T05:41:30.936Z,100975.33
2019-03-24T05:44:03.665Z,100977.86
2019-03-24T05:46:36.274Z,100977.33
2019-03-24T05:49:09.225Z,100993.23
2019-03-24T05:51:41.995Z,100999.55
2019-03-24T05:54:14.863Z,100993.80
2019-03-24T05:56:47.594Z,100983.23
2019-03-24T05:59:20.645Z,100981.39
2019-03-24T06:01:53.444Z,100982.99
2019-03-24T06:04:26.304Z,100983.11
2019-03-24T06:06:59.324Z,100980.88
2019-03-24T06:09:32.784Z,100987.42
2019-03-24T06:12:05.864Z,100988.11
2019-03-24T06:14:38.674Z,100975.08
2019-03-24T06:17:11.565Z,100972.04
2019-03-24T06:19:44.284Z,100976.97
2019-03-24T06:22:17.223Z,100979.59
2019-03-24T06:24:50.502Z,100969.93
2019-03-24T06:27:23.495Z,100973.33
2019-03-24T06:29:56.094Z,100965.89
2019-03-24T06:32:29.071Z,100974.53
2019-03-24T06:35:03.987Z,100978.69
2019-03-24T06:37:36.846Z,100981.05
2019-03-24T06:40:09.915Z,100970.11
2019-03-24T06:42:42.844Z,100965.20
2019-03-24T06:45:15.825Z,100961.14
2019-03-24T06:47:57.635Z,100966.68
2019-03-24T06:50:23.264Z,100967.44
2019-03-24T06:52:55.924Z,100969.73
2019-03-24T06:55:29.199Z,100967.53
2019-03-24T06:58:01.941Z,100969.64
2019-03-24T07:00:35.011Z,100960.59
2019-03-24T07:03:07.809Z,100965.66
2019-03-24T07:05:40.878Z,100969.50
2019-03-24T07:08:13.768Z,100975.52
2019-03-24T07:10:47.048Z,100980.54
2019-03-24T07:13:19.950Z,100973.89
2019-03-24T07:15:52.569Z,100976.73
2019-03-24T07:18:25.469Z,100982.19
2019-03-24T07:20:57.930Z,100977.28
2019-03-24T07:23:30.997Z,100975.74
2019-03-24T07:26:03.838Z,100982.44
2019-03-24T07:28:36.839Z,100971.16
2019-03-24T07:31:09.602Z,100973.69
2019-03-24T07:33:42.648Z,100968.95
2019-03-24T07:36:15.342Z,100974.17
2019-03-24T07:38:48.058Z,100962.58
2019-03-24T07:41:20.788Z,100963.73
2019-03-24T07:43:53.749Z,100963.16
2019-03-24T07:46:26.469Z,100961.49
2019-03-24T07:48:59.228Z,100954.12
2019-03-24T07:51:31.859Z,100958.51
2019-03-24T07:54:04.829Z,100951.52
2019-03-24T07:56:37.819Z,100938.98
2019-03-24T07:59:10.769Z,100940.00
2019-03-24T08:01:43.549Z,100943.59
2019-03-24T08:04:16.341Z,100946.00
2019-03-24T08:06:49.208Z,100953.48
2019-03-24T08:09:23.018Z,100946.08
2019-03-24T08:11:55.738Z,100938.50
2019-03-24T08:14:28.457Z,100935.91
2019-03-24T08:17:01.189Z,100930.59
2019-03-24T08:19:33.849Z,100934.44
2019-03-24T08:22:06.720Z,100931.66
2019-03-24T08:24:39.579Z,100932.65
2019-03-24T08:27:12.368Z,100933.77
2019-03-24T08:29:44.978Z,100944.07
2019-03-24T08:32:17.989Z,100933.72
2019-03-24T08:34:51.060Z,100926.47
2019-03-24T08:37:23.859Z,100933.77
2019-03-24T08:39:56.860Z,100937.00
2019-03-24T08:42:30.019Z,100932.27
2019-03-24T08:45:03.263Z,100930.22
2019-03-24T08:47:36.029Z,100916.84
2019-03-24T08:50:09.568Z,100905.84
2019-03-24T08:52:42.539Z,100899.17
2019-03-24T08:55:16.018Z,100902.05
2019-03-24T08:57:48.802Z,100903.09
2019-03-24T09:00:30.172Z,100915.00
2019-03-24T09:02:55.922Z,100914.06
2019-03-24T09:05:28.592Z,100905.91
2019-03-24T09:08:01.209Z,100903.41
2019-03-24T09:10:33.827Z,100910.79
2019-03-24T09:13:06.509Z,100904.84
2019-03-24T09:15:39.668Z,100898.34
2019-03-24T09:18:12.261Z,100891.20
2019-03-24T09:20:44.843Z,100890.33
2019-03-24T09:23:17.558Z,100893.95
2019-03-24T09:25:54.349Z,100896.81
2019-03-24T09:28:26.970Z,100889.35
2019-03-24T09:30:59.589Z,100891.48
2019-03-24T09:33:32.279Z,100885.59
2019-03-24T09:36:05.008Z,100885.43
2019-03-24T09:38:37.859Z,100875.72
2019-03-24T09:41:10.949Z,100873.25
2019-03-24T09:43:43.700Z,100873.05
2019-03-24T09:46:16.293Z,100863.83
2019-03-24T09:48:50.588Z,100858.97
2019-03-24T09:51:24.679Z,100859.73
2019-03-24T09:53:57.298Z,100862.36
2019-03-24T09:56:30.038Z,100858.15
2019-03-24T09:59:06.111Z,100858.13
2019-03-24T10:01:38.609Z,100853.01
2019-03-24T10:04:11.268Z,100854.86
2019-03-24T10:06:44.209Z,100860.61
2019-03-24T10:09:16.780Z,100849.94
2019-03-24T10:11:49.559Z,100850.59
2019-03-24T10:14:22.351Z,100851.01
2019-03-24T10:16:55.803Z,100853.18
2019-03-24T10:19:28.489Z,100842.30
2019-03-24T10:22:01.149Z,100833.19
2019-03-24T10:24:33.870Z,100828.80
2019-03-24T10:27:06.418Z,100826.61
2019-03-24T10:29:38.988Z,100831.53
2019-03-24T10:32:11.808Z,100820.95
2019-03-24T10:34:44.409Z,100817.92
2019-03-24T10:37:20.026Z,100815.28
2019-03-24T10:39:52.729Z,100801.58
2019-03-24T10:42:25.488Z,100791.88
2019-03-24T10:44:58.010Z,100793.27
2019-03-24T10:47:30.619Z,100793.44
2019-03-24T10:50:03.268Z,100797.98
2019-03-24T10:52:35.768Z,100789.84
2019-03-24T10:55:10.309Z,100795.44
2019-03-24T10:57:43.468Z,100787.41
2019-03-24T11:00:18.568Z,100778.77
2019-03-24T11:02:51.528Z,100783.34
2019-03-24T11:05:24.163Z,100773.92
2019-03-24T11:07:56.771Z,100780.78
2019-03-24T11:10:29.329Z,100773.49
2019-03-24T11:13:02.140Z,100773.65
2019-03-24T11:15:35.772Z,100766.26
2019-03-24T11:18:08.370Z,100770.52
2019-03-24T11:20:41.049Z,100755.52
2019-03-24T11:23:13.808Z,100765.25
2019-03-24T11:25:46.559Z,100758.23
2019-03-24T11:28:19.379Z,100755.17
2019-03-24T11:30:53.362Z,100741.94
2019-03-24T11:33:25.888Z,100741.78
2019-03-24T11:35:58.418Z,100745.00
2019-03-24T11:38:31.202Z,100739.02
2019-03-24T11:41:03.980Z,100736.84
2019-03-24T11:43:36.709Z,100736.09
2019-03-24T11:46:09.190Z,100725.77
2019-03-24T11:48:41.739Z,100730.91
2019-03-24T11:51:14.348Z,100725.69
2019-03-24T11:53:47.028Z,100721.95
2019-03-24T11:56:19.850Z,100703.29
2019-03-24T11:58:52.903Z,100691.07
2019-03-24T12:01:26.809Z,100695.72
2019-03-24T12:03:59.430Z,100691.45
2019-03-24T12:06:32.149Z,100689.41
2019-03-24T12:09:06.069Z,100683.02
2019-03-24T12:11:38.959Z,100675.64
2019-03-24T12:14:11.579Z,100674.37
2019-03-24T12:16:44.169Z,100672.64
2019-03-24T12:19:16.929Z,100670.45
2019-03-24T12:21:49.829Z,100665.88
2019-03-24T12:24:22.400Z,100674.25
2019-03-24T12:26:55.288Z,100671.21
2019-03-24T12:29:28.039Z,100667.55
2019-03-24T12:32:01.009Z,100662.97
2019-03-24T12:34:33.718Z,100660.97
2019-03-24T12:37:06.459Z,100652.17
2019-03-24T12:39:39.066Z,100645.98
2019-03-24T12:42:11.818Z,100641.91
2019-03-24T12:44:44.550Z,100634.61
2019-03-24T12:47:17.188Z,100623.87
2019-03-24T12:49:49.759Z,100624.20
2019-03-24T12:52:22.509Z,100620.69
2019-03-24T12:54:55.322Z,100615.77
2019-03-24T12:57:27.907Z,100612.94
2019-03-24T13:00:00.609Z,100602.03
2019-03-24T13:02:33.386Z,100599.84
2019-03-24T13:05:06.868Z,100601.83
2019-03-24T13:07:39.671Z,100601.22
2019-03-24T13:10:12.579Z,100596.33
2019-03-24T13:12:45.099Z,100594.33
2019-03-24T13:15:17.810Z,100584.72
2019-03-24T13:17:50.514Z,100577.05
2019-03-24T13:20:36.427Z,100579.60
2019-03-24T13:22:57.710Z,100582.02
2019-03-24T13:25:30.483Z,100571.92
2019-03-24T13:28:03.099Z,100574.06
2019-03-24T13:30:35.788Z,100562.63
2019-03-24T13:33:08.638Z,100563.84
2019-03-24T13:35:41.469Z,100566.69
2019-03-24T13:38:14.320Z,100556.45
2019-03-24T13:40:46.990Z,100558.37
2019-03-24T13:43:19.619Z,100556.28
2019-03-24T13:45:52.211Z,100547.18
2019-03-24T13:48:25.171Z,100541.56
2019-03-24T13:50:57.956Z,100535.36
2019-03-24T13:53:30.669Z,100539.17
2019-03-24T13:56:03.739Z,100522.31
2019-03-24T13:58:36.390Z,100516.97
2019-03-24T14:01:10.249Z,100517.34
2019-03-24T14:03:43.138Z,100511.16
2019-03-24T14:06:15.748Z,100512.25
2019-03-24T14:08:48.468Z,100498.91
2019-03-24T14:11:21.158Z,100505.05
2019-03-24T14:13:53.962Z,100496.95
2019-03-24T14:16:27.268Z,100499.16
2019-03-24T14:18:59.888Z,100495.70
2019-03-24T14:21:32.611Z,100500.38
2019-03-24T14:24:05.269Z,100492.83
2019-03-24T14:26:37.828Z,100497.45
2019-03-24T14:29:10.750Z,100502.86
2019-03-24T14:31:43.558Z,100494.81
2019-03-24T14:34:16.148Z,100490.17
2019-03-24T14:36:48.749Z,100485.00
2019-03-24T14:39:21.859Z,100477.33
2019-03-24T14:41:54.568Z,100480.19
2019-03-24T14:44:27.088Z,100480.08
2019-03-24T14:46:59.928Z,100477.33
2019-03-24T14:49:32.690Z,100471.27
2019-03-24T14:52:05.468Z,100466.70
2019-03-24T14:54:37.999Z,100467.17
2019-03-24T14:57:10.951Z,100467.39
2019-03-24T14:59:43.801Z,100464.20
2019-03-24T15:02:16.628Z,100473.18
2019-03-24T15:04:49.259Z,100459.80
2019-03-24T15:07:22.142Z,100464.66
2019-03-24T15:09:54.968Z,100459.44
2019-03-24T15:12:28.749Z,100455.89
2019-03-24T15:15:01.388Z,100459.22
2019-03-24T15:17:33.968Z,100454.45
2019-03-24T15:20:07.269Z,100453.81
2019-03-24T15:22:39.932Z,100445.56
2019-03-24T15:25:12.888Z,100446.81
2019-03-24T15:27:45.759Z,100442.12
2019-03-24T15:30:18.740Z,100443.38
2019-03-24T15:32:53.478Z,100438.59
2019-03-24T15:35:26.330Z,100434.13
2019-03-24T15:38:08.146Z,100430.44
2019-03-24T15:40:34.571Z,100424.34
2019-03-24T15:43:07.617Z,100427.06
2019-03-24T15:45:40.259Z,100408.21
2019-03-24T15:48:12.941Z,100413.02
2019-03-24T15:50:48.409Z,100408.16
2019-03-24T15:53:20.971Z,100414.89
2019-03-24T15:55:53.670Z,100409.42
2019-03-24T15:58:26.329Z,100411.20
2019-03-24T16:00:58.968Z,100408.19
2019-03-24T16:03:31.699Z,100408.89
2019-03-24T16:06:04.388Z,100409.56
2019-03-24T16:08:36.988Z,100416.27
2019-03-24T16:11:09.668Z,100409.50
2019-03-24T16:13:42.539Z,100403.56
2019-03-24T16:16:15.250Z,100396.78
2019-03-24T16:18:47.999Z,100400.78
2019-03-24T16:21:27.712Z,100396.53
2019-03-24T16:23:54.949Z,100393.06
2019-03-24T16:26:27.658Z,100397.00
2019-03-24T16:29:00.228Z,100393.55
2019-03-24T16:31:32.931Z,100388.65
2019-03-24T16:34:05.793Z,100386.59
2019-03-24T16:36:38.429Z,100389.34
2019-03-24T16:39:11.098Z,100384.36
2019-03-24T16:41:43.748Z,100391.28
2019-03-24T16:44:16.428Z,100382.90
2019-03-24T16:46:48.968Z,100384.02
2019-03-24T16:49:21.809Z,100387.89
2019-03-24T16:51:55.109Z,100383.65
2019-03-24T16:54:27.919Z,100379.83
2019-03-24T16:57:00.598Z,100381.77
2019-03-24T16:59:33.449Z,100377.94
2019-03-24T17:02:06.318Z,100381.36
2019-03-24T17:04:38.869Z,100383.73
2019-03-24T17:07:11.690Z,100383.09
2019-03-24T17:09:44.527Z,100385.73
2019-03-24T17:12:17.468Z,100377.45
2019-03-24T17:14:50.209Z,100375.50
2019-03-24T17:17:22.848Z,100376.33
2019-03-24T17:19:55.528Z,100375.94
2019-03-24T17:22:30.282Z,100379.86
2019-03-24T17:25:05.500Z,100382.17
2019-03-24T17:27:38.918Z,100380.11
2019-03-24T17:30:12.988Z,100380.64
2019-03-24T17:32:46.108Z,100377.02
2019-03-24T17:35:19.019Z,100371.00
2019-03-24T17:37:51.728Z,100374.22
2019-03-24T17:40:24.539Z,100372.19
2019-03-24T17:42:57.496Z,100368.83
2019-03-24T17:45:30.208Z,100371.74
2019-03-24T17:48:02.929Z,100368.98
2019-03-24T17:50:35.670Z,100366.11
2019-03-24T17:53:08.589Z,100369.31
2019-03-24T17:55:41.109Z,100374.40
2019-03-24T17:58:14.989Z,100360.81
2019-03-24T18:00:49.750Z,100360.92
2019-03-24T18:03:22.253Z,100357.22
2019-03-24T18:05:54.977Z,100351.78
2019-03-24T18:08:27.758Z,100350.82
2019-03-24T18:11:00.408Z,100348.47
2019-03-24T18:13:32.922Z,100343.97
2019-03-24T18:16:05.777Z,100344.09
2019-03-24T18:18:38.622Z,100345.22
2019-03-24T18:21:11.196Z,100335.53
2019-03-24T18:23:43.699Z,100336.33
2019-03-24T18:26:16.369Z,100332.78
2019-03-24T18:28:48.828Z,100339.73
2019-03-24T18:31:21.849Z,100329.41
2019-03-24T18:33:54.429Z,100324.82
2019-03-24T18:36:26.989Z,100325.02
2019-03-24T18:38:59.749Z,100322.13
2019-03-24T18:41:32.369Z,100319.59
2019-03-24T18:44:06.368Z,100318.52
2019-03-24T18:46:40.559Z,100316.70
2019-03-24T18:49:13.171Z,100316.97
2019-03-24T18:51:46.849Z,100317.36
2019-03-24T18:54:19.479Z,100328.41
2019-03-24T18:56:52.029Z,100321.39
2019-03-24T18:59:24.619Z,100316.50
2019-03-24T19:01:57.264Z,100313.58
2019-03-24T19:04:29.820Z,100315.03
2019-03-24T19:07:02.878Z,100308.04
2019-03-24T19:09:36.388Z,100306.80
2019-03-24T19:12:08.988Z,100304.77
2019-03-24T19:14:41.619Z,100301.40
2019-03-24T19:17:17.089Z,100300.67
2019-03-24T19:19:49.819Z,100297.13
2019-03-24T19:22:33.053Z,100293.34
2019-03-24T19:24:56.823Z,100291.85
2019-03-24T19:27:29.551Z,100289.17
2019-03-24T19:30:02.137Z,100279.48
2019-03-24T19:32:36.292Z,100291.34
2019-03-24T19:35:09.208Z,100285.08
2019-03-24T19:37:45.228Z,100282.20
2019-03-24T19:40:31.991Z,100281.86
2019-03-24T19:43:05.181Z,100279.81
2019-03-24T19:45:38.038Z,100269.55
2019-03-24T19:48:10.952Z,100271.26
2019-03-24T19:50:43.859Z,100268.72
2019-03-24T19:53:17.749Z,100275.31
2019-03-24T19:55:51.531Z,100270.52
2019-03-24T19:58:24.809Z,100271.41
2019-03-24T20:00:57.799Z,100273.52
2019-03-24T20:03:30.470Z,100270.11
2019-03-24T20:06:03.437Z,100268.47
2019-03-24T20:08:36.148Z,100275.38
2019-03-24T20:11:08.809Z,100265.83
2019-03-24T20:13:42.682Z,100267.11
2019-03-24T20:16:15.539Z,100267.97
2019-03-24T20:18:48.649Z,100266.23
2019-03-24T20:21:21.739Z,100274.82
2019-03-24T20:23:54.368Z,100273.52
2019-03-24T20:26:28.159Z,100274.42
2019-03-24T20:29:00.799Z,100273.09
2019-03-24T20:31:34.474Z,100264.97
2019-03-24T20:34:07.328Z,100263.41
2019-03-24T20:36:40.056Z,100259.94
2019-03-24T20:39:12.973Z,100267.66
2019-03-24T20:41:45.920Z,100261.98
2019-03-24T20:44:18.782Z,100259.50
2019-03-24T20:46:51.561Z,100259.54
2019-03-24T20:49:25.822Z,100256.53
2019-03-24T20:51:58.518Z,100257.77
2019-03-24T20:54:33.588Z,100255.11
2019-03-24T20:57:06.543Z,100249.16
2019-03-24T20:59:39.462Z,100250.98
2019-03-24T21:02:12.189Z,100247.23
2019-03-24T21:04:45.138Z,100251.59
2019-03-24T21:07:17.821Z,100248.93
2019-03-24T21:09:50.569Z,100241.87
2019-03-24T21:12:23.828Z,100240.97
2019-03-24T21:14:56.608Z,100240.07
2019-03-24T21:17:29.293Z,100234.06
2019-03-24T21:20:01.916Z,100225.41
2019-03-24T21:22:34.519Z,100220.64
2019-03-24T21:25:07.729Z,100220.30
2019-03-24T21:27:40.600Z,100206.58
2019-03-24T21:30:15.398Z,100198.77
2019-03-24T21:32:47.988Z,100199.20
2019-03-24T21:35:20.779Z,100193.25
2019-03-24T21:37:53.799Z,100187.64
2019-03-24T21:40:26.491Z,100192.07
2019-03-24T21:42:59.597Z,100189.13
2019-03-24T21:45:32.148Z,100183.58
2019-03-24T21:48:05.399Z,100193.67
2019-03-24T21:50:38.920Z,100181.22
2019-03-24T21:53:11.681Z,100189.02
2019-03-24T21:55:44.639Z,100180.84
2019-03-24T21:58:17.258Z,100176.02
2019-03-24T22:00:53.012Z,100172.11
2019-03-24T22:03:25.608Z,100174.75
2019-03-24T22:05:58.412Z,100174.38
2019-03-24T22:08:31.199Z,100169.28
2019-03-24T22:11:03.848Z,100159.92
2019-03-24T22:13:36.523Z,100161.69
2019-03-24T22:16:09.052Z,100155.16
2019-03-24T22:18:41.838Z,100157.27
2019-03-24T22:21:14.288Z,100154.70
2019-03-24T22:23:52.140Z,100151.61
2019-03-24T22:26:21.093Z,100150.05
2019-03-24T22:28:53.728Z,100157.16
2019-03-24T22:31:26.408Z,100152.13
2019-03-24T22:33:59.175Z,100145.36
2019-03-24T22:36:31.942Z,100150.04
2019-03-24T22:39:08.020Z,100144.55
2019-03-24T22:41:40.879Z,100142.55
2019-03-24T22:44:14.242Z,100144.31
2019-03-24T22:46:46.872Z,100137.84
2019-03-24T22:49:19.985Z,100134.67
2019-03-24T22:51:54.838Z,100129.45
2019-03-24T22:54:27.249Z,100125.53
2019-03-24T22:56:59.765Z,100129.31
2019-03-24T22:59:32.509Z,100118.47
2019-03-24T23:02:05.313Z,100111.13
2019-03-24T23:04:37.817Z,100109.40
2019-03-24T23:07:10.389Z,100108.09
2019-03-24T23:09:43.009Z,100104.20
2019-03-24T23:12:15.931Z,100106.45
2019-03-24T23:14:48.889Z,100103.47
2019-03-24T23:17:21.568Z,100094.03
2019-03-24T23:19:54.491Z,100094.12
2019-03-24T23:22:27.179Z,100086.34
2019-03-24T23:24:59.699Z,100091.52
2019-03-24T23:27:32.656Z,100088.51
2019-03-24T23:30:07.499Z,100086.75
2019-03-24T23:32:41.339Z,100083.72
2019-03-24T23:35:13.949Z,100085.53
2019-03-24T23:37:46.774Z,100078.77
2019-03-24T23:40:19.388Z,100077.13
2019-03-24T23:42:51.902Z,100077.23
2019-03-24T23:45:24.343Z,100069.03
2019-03-24T23:47:56.869Z,100073.36
2019-03-24T23:50:29.639Z,100067.68
2019-03-24T23:53:02.786Z,100067.63
2019-03-24T23:55:35.968Z,100067.68
2019-03-24T23:58:08.788Z,100064.37
